Time;durP1;ratioP1;P1;durP2;ratioP2;P2;SDS_P1;SDS_P2;PMS_P1;PMS_P2;Temp;Humidity;BMP_temperature;BMP_pressure;BME280_temperature;BME280_humidity;BME280_pressure;Samples;Min_cycle;Max_cycle;Signal;HPM_P1;HPM_P2
2021/07/19 00:01:58;;;;;;;1.33;1.20;;;19.10;98.00;;;;;;5095750;28;20455;-68
2021/07/19 00:04:25;;;;;;;1.40;1.20;;;19.20;98.00;;;;;;5095967;28;20460;-68
2021/07/19 00:06:53;;;;;;;1.30;1.20;;;19.30;98.00;;;;;;5095740;28;20518;-68
2021/07/19 00:09:20;;;;;;;1.40;1.20;;;19.30;98.00;;;;;;5095915;28;20513;-69
2021/07/19 00:11:47;;;;;;;1.60;1.20;;;19.30;98.00;;;;;;5096002;28;20470;-69
2021/07/19 00:14:14;;;;;;;1.30;1.10;;;19.20;98.00;;;;;;5094446;28;20483;-69
2021/07/19 00:16:42;;;;;;;1.57;1.30;;;19.20;98.00;;;;;;5095589;28;20514;-69
2021/07/19 00:19:10;;;;;;;1.20;1.10;;;19.10;98.00;;;;;;5095457;28;20612;-68
2021/07/19 00:21:37;;;;;;;1.30;1.20;;;19.10;98.00;;;;;;5095432;28;20451;-68
2021/07/19 00:24:10;;;;;;;1.20;1.20;;;19.00;98.00;;;;;;5095374;28;20488;-68
2021/07/19 00:26:37;;;;;;;1.30;1.20;;;18.90;98.00;;;;;;5093119;28;20483;-69
2021/07/19 00:29:04;;;;;;;1.63;1.30;;;18.80;98.00;;;;;;5095176;28;20452;-69
2021/07/19 00:31:34;;;;;;;1.30;1.20;;;18.80;98.00;;;;;;5095536;28;20515;-69
2021/07/19 00:34:02;;;;;;;1.80;1.30;;;18.80;98.00;;;;;;5095057;28;20505;-69
2021/07/19 00:36:30;;;;;;;1.63;1.30;;;18.80;98.00;;;;;;5095135;28;20481;-68
2021/07/19 00:38:57;;;;;;;1.40;1.20;;;18.80;98.00;;;;;;5095124;28;20489;-68
2021/07/19 00:41:25;;;;;;;1.30;1.23;;;18.90;98.00;;;;;;5095241;28;20459;-69
2021/07/19 00:43:52;;;;;;;1.63;1.57;;;19.00;98.00;;;;;;5095134;28;20484;-68
2021/07/19 00:46:19;;;;;;;1.20;1.20;;;18.90;98.00;;;;;;5095054;28;20480;-68
2021/07/19 00:48:48;;;;;;;1.53;1.27;;;18.70;98.00;;;;;;5093821;28;20522;-68
2021/07/19 00:51:16;;;;;;;1.20;1.10;;;18.50;98.00;;;;;;5094741;28;20452;-69
2021/07/19 00:53:44;;;;;;;1.30;1.10;;;18.60;98.00;;;;;;5094727;28;20448;-68
2021/07/19 00:56:15;;;;;;;1.30;1.20;;;18.40;98.00;;;;;;5094874;28;20486;-68
2021/07/19 00:58:42;;;;;;;1.30;1.20;;;18.30;98.00;;;;;;5094771;28;20490;-69
2021/07/19 01:01:12;;;;;;;1.40;1.30;;;18.30;98.00;;;;;;5094539;28;20548;-69
2021/07/19 01:03:40;;;;;;;1.30;1.20;;;18.40;98.00;;;;;;5094778;28;20862;-69
2021/07/19 01:06:08;;;;;;;1.37;1.33;;;18.40;98.00;;;;;;5094380;28;20515;-68
2021/07/19 01:08:37;;;;;;;1.20;1.10;;;18.40;98.00;;;;;;5094565;28;20452;-68
2021/07/19 01:11:06;;;;;;;1.30;1.20;;;18.40;98.00;;;;;;5093106;28;21078;-68
2021/07/19 01:13:33;;;;;;;1.60;1.37;;;18.30;98.00;;;;;;5094605;28;21017;-68
2021/07/19 01:16:00;;;;;;;1.33;1.27;;;18.30;98.00;;;;;;5094400;28;20502;-68
2021/07/19 01:18:27;;;;;;;1.20;1.10;;;18.30;98.00;;;;;;5094549;28;20456;-68
2021/07/19 01:21:26;;;;;;;1.50;1.30;;;18.40;98.00;;;;;;5094692;28;20454;-68
2021/07/19 01:24:09;;;;;;;1.40;1.40;;;18.20;98.00;;;;;;5069317;28;20466;-68
2021/07/19 01:26:56;;;;;;;1.30;1.20;;;18.20;98.00;;;;;;5094058;28;20476;-68
2021/07/19 01:29:25;;;;;;;1.40;1.23;;;18.20;98.00;;;;;;5094463;28;20550;-69
2021/07/19 01:31:53;;;;;;;1.63;1.27;;;18.30;98.00;;;;;;5094150;28;20535;-68
2021/07/19 01:34:23;;;;;;;1.30;1.20;;;18.20;98.00;;;;;;5094498;28;20463;-69
2021/07/19 01:36:53;;;;;;;1.70;1.10;;;18.00;98.00;;;;;;5093856;28;20492;-69
2021/07/19 01:39:21;;;;;;;1.67;1.40;;;17.90;98.00;;;;;;5093487;28;20456;-68
2021/07/19 01:41:49;;;;;;;1.20;1.20;;;17.90;98.00;;;;;;5094051;28;20467;-68
2021/07/19 01:44:19;;;;;;;1.30;1.23;;;17.80;98.00;;;;;;5093946;28;20537;-69
2021/07/19 01:46:49;;;;;;;1.20;1.10;;;17.80;98.00;;;;;;5092398;28;20487;-69
2021/07/19 01:49:19;;;;;;;1.33;1.17;;;17.90;98.00;;;;;;5093946;28;20460;-68
2021/07/19 01:51:47;;;;;;;1.20;1.17;;;17.90;98.00;;;;;;5092294;28;20451;-68
2021/07/19 01:54:15;;;;;;;1.20;1.10;;;17.90;98.00;;;;;;5093603;28;20460;-68
2021/07/19 01:56:43;;;;;;;1.47;1.40;;;17.80;98.00;;;;;;5093592;28;20452;-69
2021/07/19 01:59:11;;;;;;;1.97;1.90;;;17.80;98.00;;;;;;5092374;28;20502;-69
2021/07/19 02:01:40;;;;;;;1.20;1.20;;;17.60;98.00;;;;;;5093518;28;20460;-68
2021/07/19 02:04:10;;;;;;;3.00;1.97;;;17.70;98.00;;;;;;5093488;28;20847;-68
2021/07/19 02:06:39;;;;;;;1.73;1.30;;;17.80;98.00;;;;;;5093180;28;20515;-68
2021/07/19 02:09:07;;;;;;;1.30;1.20;;;17.60;98.00;;;;;;5093320;28;20545;-69
2021/07/19 02:11:35;;;;;;;1.60;1.30;;;17.50;98.00;;;;;;5093264;28;20879;-68
2021/07/19 02:14:07;;;;;;;1.50;1.10;;;17.40;98.00;;;;;;5093344;28;20459;-68
2021/07/19 02:16:37;;;;;;;1.20;1.20;;;17.30;98.00;;;;;;5093156;28;20530;-68
2021/07/19 02:19:05;;;;;;;1.30;1.10;;;17.30;98.00;;;;;;5092752;28;20452;-68
2021/07/19 02:21:37;;;;;;;1.67;1.23;;;17.20;98.00;;;;;;5092735;28;20501;-68
2021/07/19 02:24:05;;;;;;;1.83;1.30;;;17.30;98.00;;;;;;5089824;28;20471;-68
2021/07/19 02:26:32;;;;;;;1.20;1.10;;;17.20;98.00;;;;;;5092618;28;20476;-68
2021/07/19 02:28:59;;;;;;;1.23;1.23;;;17.10;98.00;;;;;;5093166;28;20452;-68
2021/07/19 02:31:27;;;;;;;1.20;1.10;;;17.20;98.00;;;;;;5092842;28;20480;-68
2021/07/19 02:33:57;;;;;;;1.20;1.10;;;17.20;98.00;;;;;;5092846;28;20501;-68
2021/07/19 02:36:24;;;;;;;1.50;1.10;;;17.20;98.00;;;;;;5091665;28;20452;-68
2021/07/19 02:38:55;;;;;;;1.30;1.20;;;17.10;98.00;;;;;;5093214;28;20488;-69
2021/07/19 02:41:25;;;;;;;2.10;1.47;;;17.20;98.00;;;;;;5092623;28;20514;-68
2021/07/19 02:43:56;;;;;;;2.07;1.30;;;17.20;98.00;;;;;;5093216;28;20513;-68
2021/07/19 02:46:25;;;;;;;1.27;1.17;;;17.30;98.00;;;;;;5091535;28;20978;-68
2021/07/19 02:48:54;;;;;;;1.73;1.10;;;17.30;98.00;;;;;;5092924;28;20533;-68
2021/07/19 02:51:23;;;;;;;1.20;1.13;;;17.20;98.00;;;;;;5092747;28;20484;-67
2021/07/19 02:53:53;;;;;;;1.40;1.30;;;17.10;98.00;;;;;;5092577;28;20507;-69
2021/07/19 02:56:20;;;;;;;1.20;1.20;;;17.30;98.00;;;;;;5092331;28;20444;-69
2021/07/19 02:58:48;;;;;;;1.30;1.17;;;17.30;98.00;;;;;;5092457;28;20452;-69
2021/07/19 03:01:18;;;;;;;1.20;1.10;;;17.50;98.00;;;;;;5092643;28;20494;-68
2021/07/19 03:03:47;;;;;;;1.70;1.30;;;17.50;98.00;;;;;;5091978;28;20582;-68
2021/07/19 03:06:19;;;;;;;2.57;1.50;;;17.40;98.00;;;;;;5092001;28;20485;-68
2021/07/19 03:08:47;;;;;;;1.30;1.10;;;17.10;98.00;;;;;;5092202;28;20451;-69
2021/07/19 03:11:21;;;;;;;1.70;1.30;;;17.00;98.00;;;;;;5092211;28;20492;-69
2021/07/19 03:13:55;;;;;;;1.23;1.13;;;16.90;98.00;;;;;;5092170;28;20449;-68
2021/07/19 03:16:23;;;;;;;1.20;1.10;;;16.90;98.00;;;;;;5092256;28;20536;-68
2021/07/19 03:18:53;;;;;;;1.40;1.30;;;16.80;98.00;;;;;;5091876;28;20547;-68
2021/07/19 03:21:24;;;;;;;1.40;1.20;;;16.90;98.00;;;;;;5092142;28;20521;-68
2021/07/19 03:23:53;;;;;;;1.20;1.20;;;16.90;98.00;;;;;;5092059;28;20462;-68
2021/07/19 03:26:23;;;;;;;1.37;1.17;;;17.00;98.00;;;;;;5091814;28;20628;-68
2021/07/19 03:28:51;;;;;;;2.80;1.47;;;17.10;98.00;;;;;;5092011;28;20866;-68
2021/07/19 03:31:20;;;;;;;1.57;1.33;;;17.00;98.00;;;;;;5091966;28;20568;-68
2021/07/19 03:33:49;;;;;;;1.40;1.10;;;16.90;98.00;;;;;;5090918;28;20483;-68
2021/07/19 03:36:17;;;;;;;1.50;1.20;;;17.00;98.00;;;;;;5092068;28;20529;-68
2021/07/19 03:38:45;;;;;;;1.30;1.20;;;16.90;98.00;;;;;;5091993;28;20460;-69
2021/07/19 03:41:13;;;;;;;1.40;1.40;;;17.00;98.00;;;;;;5091812;28;20486;-68
2021/07/19 03:43:45;;;;;;;1.93;1.20;;;17.10;98.00;;;;;;5091804;28;20456;-68
2021/07/19 03:46:13;;;;;;;1.30;1.20;;;17.10;98.00;;;;;;5091838;28;20549;-67
2021/07/19 03:48:42;;;;;;;1.30;1.10;;;16.90;98.00;;;;;;5092173;28;20491;-69
2021/07/19 03:51:10;;;;;;;1.30;1.20;;;16.80;98.00;;;;;;5091780;28;20492;-69
2021/07/19 03:53:40;;;;;;;1.27;1.23;;;16.80;98.00;;;;;;5091974;28;20451;-69
2021/07/19 03:56:07;;;;;;;1.70;1.43;;;16.80;98.00;;;;;;5073660;28;20803;-68
2021/07/19 03:58:36;;;;;;;1.30;1.20;;;16.90;98.00;;;;;;5092076;28;20452;-69
2021/07/19 04:01:06;;;;;;;1.30;1.30;;;16.90;98.00;;;;;;5091883;28;21021;-68
2021/07/19 04:03:45;;;;;;;1.27;1.23;;;16.90;98.00;;;;;;5091859;28;20841;-69
2021/07/19 04:06:14;;;;;;;1.30;1.20;;;17.00;98.00;;;;;;5091854;28;20467;-68
2021/07/19 04:08:42;;;;;;;1.30;1.30;;;17.10;98.00;;;;;;5091716;28;20484;-69
2021/07/19 04:11:10;;;;;;;1.40;1.40;;;17.20;98.00;;;;;;5091619;28;20877;-67
2021/07/19 04:13:38;;;;;;;1.30;1.10;;;17.20;98.00;;;;;;5091505;28;20462;-68
2021/07/19 04:16:07;;;;;;;1.40;1.20;;;17.20;98.00;;;;;;5091347;28;21150;-69
2021/07/19 04:18:34;;;;;;;1.37;1.20;;;17.20;98.00;;;;;;5091231;28;20546;-68
2021/07/19 04:21:03;;;;;;;1.50;1.27;;;17.10;98.00;;;;;;5091343;28;20460;-67
2021/07/19 04:23:32;;;;;;;3.50;1.60;;;17.10;98.00;;;;;;5091250;28;20463;-68
2021/07/19 04:26:00;;;;;;;1.20;1.10;;;17.10;98.00;;;;;;5091235;28;20496;-68
2021/07/19 04:28:28;;;;;;;2.70;1.30;;;17.00;98.00;;;;;;5091255;28;20537;-68
2021/07/19 04:30:58;;;;;;;1.20;1.07;;;17.00;98.00;;;;;;5091116;28;20996;-68
2021/07/19 04:33:29;;;;;;;1.20;1.20;;;16.90;98.00;;;;;;5091084;28;20448;-68
2021/07/19 04:35:56;;;;;;;1.53;1.50;;;16.80;98.00;;;;;;5091394;28;20547;-68
2021/07/19 04:38:24;;;;;;;1.60;1.27;;;16.80;98.00;;;;;;5091225;28;20444;-68
2021/07/19 04:40:54;;;;;;;1.30;1.27;;;16.90;98.00;;;;;;5091209;28;20482;-68
2021/07/19 04:43:22;;;;;;;1.20;1.20;;;16.90;98.00;;;;;;5091299;28;20869;-68
2021/07/19 04:45:50;;;;;;;2.30;1.47;;;17.00;98.00;;;;;;5094101;28;20456;-69
2021/07/19 04:48:18;;;;;;;1.30;1.10;;;17.00;98.00;;;;;;5094864;28;20523;-69
2021/07/19 04:50:47;;;;;;;1.40;1.13;;;17.10;98.00;;;;;;5094837;28;20510;-69
2021/07/19 04:53:15;;;;;;;1.20;1.00;;;17.30;98.00;;;;;;5094856;28;20502;-68
2021/07/19 04:55:46;;;;;;;1.73;1.10;;;17.30;98.00;;;;;;5094941;28;20483;-68
2021/07/19 04:58:15;;;;;;;1.50;1.50;;;17.40;98.00;;;;;;5095050;28;21014;-68
2021/07/19 05:00:46;;;;;;;2.00;1.30;;;17.40;98.00;;;;;;5094655;28;20509;-69
2021/07/19 05:03:16;;;;;;;1.30;1.20;;;17.40;98.00;;;;;;5095001;28;20508;-68
2021/07/19 05:05:45;;;;;;;2.20;1.30;;;17.40;98.00;;;;;;5094797;28;20491;-68
2021/07/19 05:08:14;;;;;;;1.40;1.37;;;17.50;98.00;;;;;;5094674;28;21037;-68
2021/07/19 05:10:42;;;;;;;1.30;1.30;;;17.70;98.00;;;;;;5094697;28;20452;-69
2021/07/19 05:13:12;;;;;;;1.37;1.30;;;17.80;98.00;;;;;;5094668;28;20459;-69
2021/07/19 05:15:41;;;;;;;1.40;1.27;;;17.80;98.00;;;;;;5094550;28;20484;-68
2021/07/19 05:18:08;;;;;;;1.30;1.30;;;17.80;98.00;;;;;;5094494;28;20479;-69
2021/07/19 05:20:37;;;;;;;1.53;1.37;;;17.90;98.00;;;;;;5093469;28;20973;-68
2021/07/19 05:23:06;;;;;;;1.33;1.13;;;18.00;98.00;;;;;;5094184;28;20452;-68
2021/07/19 05:25:34;;;;;;;1.30;1.10;;;18.10;98.00;;;;;;5094658;28;20533;-69
2021/07/19 05:28:07;;;;;;;1.50;1.40;;;18.00;98.00;;;;;;5094211;28;20479;-68
2021/07/19 05:30:36;;;;;;;1.37;1.30;;;18.00;98.00;;;;;;5094397;28;20513;-69
2021/07/19 05:33:05;;;;;;;1.83;1.50;;;18.00;98.00;;;;;;5092656;28;20868;-68
2021/07/19 05:35:32;;;;;;;1.20;1.10;;;18.00;98.00;;;;;;5094105;28;20509;-68
2021/07/19 05:37:59;;;;;;;1.50;1.27;;;18.00;98.00;;;;;;5094019;28;20456;-68
2021/07/19 05:40:28;;;;;;;1.20;1.10;;;18.10;98.00;;;;;;5093884;28;20460;-69
2021/07/19 05:42:55;;;;;;;1.47;1.43;;;18.20;98.00;;;;;;5093643;28;20489;-68
2021/07/19 05:45:22;;;;;;;1.40;1.20;;;18.40;98.00;;;;;;5093139;28;20471;-68
2021/07/19 05:47:49;;;;;;;1.63;1.20;;;18.60;98.00;;;;;;5092997;28;21033;-68
2021/07/19 05:50:16;;;;;;;1.53;1.27;;;18.70;98.00;;;;;;5092832;28;20958;-68
2021/07/19 05:52:44;;;;;;;1.40;1.10;;;18.90;98.00;;;;;;5092797;28;20483;-68
2021/07/19 05:55:11;;;;;;;1.50;1.27;;;18.90;98.00;;;;;;5093627;28;20882;-69
2021/07/19 05:57:40;;;;;;;1.90;1.80;;;18.90;98.00;;;;;;5092720;28;20966;-69
2021/07/19 06:00:10;;;;;;;1.37;1.27;;;19.10;98.00;;;;;;5092266;28;20559;-68
2021/07/19 06:02:38;;;;;;;1.70;1.47;;;19.20;98.00;;;;;;5093002;28;20448;-68
2021/07/19 06:05:06;;;;;;;1.43;1.20;;;19.30;98.00;;;;;;5093563;28;20514;-69
2021/07/19 06:07:36;;;;;;;1.87;1.43;;;19.30;98.00;;;;;;5093373;28;21023;-69
2021/07/19 06:10:06;;;;;;;1.40;1.33;;;19.30;98.00;;;;;;5093307;28;20942;-68
2021/07/19 06:12:33;;;;;;;2.40;1.40;;;19.30;98.00;;;;;;5092190;28;20455;-68
2021/07/19 06:15:02;;;;;;;1.30;1.10;;;19.40;98.00;;;;;;5093345;28;20459;-68
2021/07/19 06:17:33;;;;;;;2.03;1.23;;;19.50;98.00;;;;;;5093325;28;20476;-68
2021/07/19 06:20:00;;;;;;;1.37;1.33;;;19.50;98.00;;;;;;5093358;28;20459;-67
2021/07/19 06:22:27;;;;;;;2.53;1.50;;;19.60;98.00;;;;;;5093103;28;20447;-67
2021/07/19 06:24:55;;;;;;;2.20;1.53;;;19.60;98.00;;;;;;5093238;28;20491;-68
2021/07/19 06:27:21;;;;;;;3.00;1.60;;;19.60;98.00;;;;;;5092995;28;20464;-68
2021/07/19 06:29:49;;;;;;;1.60;1.30;;;19.70;98.00;;;;;;5093248;28;20861;-68
2021/07/19 06:32:17;;;;;;;1.20;1.20;;;19.70;98.00;;;;;;5093123;28;20873;-68
2021/07/19 06:34:44;;;;;;;1.43;1.37;;;19.80;98.00;;;;;;5093203;28;20529;-67
2021/07/19 06:37:12;;;;;;;2.83;1.97;;;19.90;98.00;;;;;;5092146;28;20448;-68
2021/07/19 06:39:40;;;;;;;1.70;1.57;;;20.00;98.00;;;;;;5092925;28;20464;-68
2021/07/19 06:42:07;;;;;;;1.37;1.30;;;20.10;98.00;;;;;;5091693;28;20452;-68
2021/07/19 06:44:34;;;;;;;1.50;1.30;;;20.20;98.00;;;;;;5093038;28;20530;-68
2021/07/19 06:47:01;;;;;;;2.50;1.57;;;20.30;98.00;;;;;;5092581;28;20505;-68
2021/07/19 06:49:30;;;;;;;1.70;1.67;;;20.30;98.00;;;;;;5092477;28;20596;-68
2021/07/19 06:51:57;;;;;;;1.67;1.60;;;20.30;98.00;;;;;;5092251;28;20950;-68
2021/07/19 06:54:24;;;;;;;1.77;1.70;;;20.40;98.00;;;;;;5092492;28;20482;-68
2021/07/19 06:56:51;;;;;;;1.70;1.60;;;20.50;98.00;;;;;;5092439;28;20877;-68
2021/07/19 06:59:19;;;;;;;1.40;1.27;;;20.60;98.00;;;;;;5074528;28;20548;-68
2021/07/19 07:01:46;;;;;;;2.40;1.33;;;20.70;98.00;;;;;;5092600;28;20451;-68
2021/07/19 07:04:13;;;;;;;1.60;1.37;;;20.80;98.00;;;;;;5091615;28;21061;-68
2021/07/19 07:06:43;;;;;;;1.20;1.10;;;20.80;98.00;;;;;;5092363;28;20488;-68
2021/07/19 07:09:09;;;;;;;1.97;1.50;;;20.90;98.00;;;;;;5091916;28;21013;-68
2021/07/19 07:11:37;;;;;;;1.70;1.50;;;21.00;98.00;;;;;;5092177;28;20460;-69
2021/07/19 07:14:05;;;;;;;1.90;1.43;;;21.10;98.00;;;;;;5099767;28;20458;-67
2021/07/19 07:16:32;;;;;;;2.03;1.40;;;21.10;98.00;;;;;;5097960;28;20463;-68
2021/07/19 07:19:00;;;;;;;1.40;1.23;;;21.30;98.00;;;;;;5099380;28;20462;-67
2021/07/19 07:21:27;;;;;;;2.77;1.50;;;21.40;98.00;;;;;;5100312;28;20813;-68
2021/07/19 07:23:55;;;;;;;1.40;1.40;;;21.50;98.00;;;;;;5098237;28;20836;-68
2021/07/19 07:26:22;;;;;;;1.97;1.40;;;21.50;98.00;;;;;;5099393;28;20494;-68
2021/07/19 07:28:49;;;;;;;1.97;1.60;;;21.60;98.00;;;;;;5098704;28;20524;-68
2021/07/19 07:31:17;;;;;;;2.17;1.80;;;21.70;98.00;;;;;;5099496;28;20558;-68
2021/07/19 07:33:44;;;;;;;1.47;1.20;;;21.70;98.00;;;;;;5108177;28;20478;-69
2021/07/19 07:36:11;;;;;;;1.30;1.17;;;21.80;98.00;;;;;;5090380;28;21103;-69
2021/07/19 07:38:38;;;;;;;1.43;1.37;;;21.90;98.00;;;;;;5100282;28;20550;-68
2021/07/19 07:41:06;;;;;;;1.40;1.30;;;22.00;98.00;;;;;;5099298;28;20502;-69
2021/07/19 07:43:33;;;;;;;1.30;1.30;;;22.10;98.00;;;;;;5090436;28;20487;-69
2021/07/19 07:46:01;;;;;;;1.30;1.27;;;22.20;98.00;;;;;;5098864;28;20478;-68
2021/07/19 07:48:32;;;;;;;1.40;1.40;;;22.20;98.00;;;;;;5107537;28;20519;-70
2021/07/19 07:50:59;;;;;;;2.03;1.80;;;22.30;98.00;;;;;;5104025;28;20482;-70
2021/07/19 07:53:26;;;;;;;1.63;1.50;;;22.40;98.00;;;;;;5107812;28;20965;-69
2021/07/19 07:55:53;;;;;;;1.50;1.30;;;22.50;98.00;;;;;;5098983;28;20459;-69
2021/07/19 07:58:21;;;;;;;1.93;1.40;;;22.50;98.00;;;;;;5106680;28;20550;-69
2021/07/19 08:00:48;;;;;;;2.37;1.80;;;22.50;98.00;;;;;;5090407;28;20476;-68
2021/07/19 08:03:19;;;;;;;1.20;1.10;;;22.60;98.00;;;;;;5098753;28;20517;-69
2021/07/19 08:05:46;;;;;;;1.70;1.37;;;22.70;98.00;;;;;;5105841;28;20489;-69
2021/07/19 08:08:13;;;;;;;1.30;1.30;;;22.80;98.00;;;;;;5098914;28;20514;-67
2021/07/19 08:10:41;;;;;;;1.40;1.30;;;22.90;98.00;;;;;;5086700;28;21062;-68
2021/07/19 08:13:08;;;;;;;1.53;1.30;;;23.10;98.00;;;;;;5098990;28;20480;-69
2021/07/19 08:15:37;;;;;;;1.20;1.20;;;23.20;98.00;;;;;;5098136;28;20517;-68
2021/07/19 08:18:04;;;;;;;1.50;1.50;;;23.40;98.00;;;;;;5089932;28;20464;-68
2021/07/19 08:20:32;;;;;;;1.40;1.20;;;23.50;98.00;;;;;;5100804;28;20447;-68
2021/07/19 08:22:59;;;;;;;1.50;1.30;;;23.50;98.00;;;;;;5102601;28;20475;-69
2021/07/19 08:25:25;;;;;;;2.40;1.80;;;23.50;98.00;;;;;;5111333;28;20470;-68
2021/07/19 08:27:53;;;;;;;3.07;2.03;;;23.60;98.00;;;;;;5110237;28;20541;-68
2021/07/19 08:30:19;;;;;;;2.50;1.40;;;23.70;98.00;;;;;;5110969;28;20942;-68
2021/07/19 08:32:48;;;;;;;2.50;1.57;;;23.90;98.00;;;;;;5094034;28;20480;-68
2021/07/19 08:35:15;;;;;;;2.50;2.00;;;24.10;98.00;;;;;;5110466;28;20929;-69
2021/07/19 08:37:45;;;;;;;2.80;1.60;;;24.20;98.00;;;;;;5110702;28;20529;-68
2021/07/19 08:40:16;;;;;;;1.77;1.47;;;24.20;98.00;;;;;;5092395;28;20465;-68
2021/07/19 08:42:43;;;;;;;1.60;1.30;;;24.20;98.00;;;;;;5101318;28;20519;-67
2021/07/19 08:45:12;;;;;;;1.30;1.20;;;24.30;98.00;;;;;;5093696;28;20451;-68
2021/07/19 08:47:43;;;;;;;1.63;1.43;;;24.50;98.00;;;;;;5101873;28;20471;-68
2021/07/19 08:50:14;;;;;;;1.73;1.50;;;24.70;98.00;;;;;;5092185;28;20495;-70
2021/07/19 08:52:42;;;;;;;2.87;1.83;;;24.60;98.00;;;;;;5110675;28;20459;-69
2021/07/19 08:55:11;;;;;;;1.77;1.40;;;24.60;98.00;;;;;;5111407;28;20451;-69
2021/07/19 08:57:40;;;;;;;2.03;1.60;;;24.60;98.00;;;;;;5102341;28;20969;-70
2021/07/19 09:00:09;;;;;;;1.90;1.50;;;24.70;98.00;;;;;;5091215;28;20451;-70
2021/07/19 09:02:40;;;;;;;2.07;1.73;;;24.70;98.00;;;;;;5101389;28;20537;-69
2021/07/19 09:05:08;;;;;;;2.00;1.50;;;24.70;98.00;;;;;;5093199;28;20463;-69
2021/07/19 09:07:37;;;;;;;1.30;1.20;;;24.80;98.00;;;;;;5101320;28;20459;-71
2021/07/19 09:10:06;;;;;;;4.40;2.27;;;24.90;98.00;;;;;;5090350;28;20491;-72
2021/07/19 09:12:35;;;;;;;1.93;1.50;;;25.00;98.00;;;;;;5093595;28;20463;-71
2021/07/19 09:15:03;;;;;;;1.70;1.50;;;25.10;98.00;;;;;;5104749;28;20459;-69
2021/07/19 09:17:30;;;;;;;1.47;1.40;;;25.20;98.00;;;;;;5084867;28;20483;-69
2021/07/19 09:19:59;;;;;;;1.67;1.30;;;25.30;98.00;;;;;;5092856;28;20521;-71
2021/07/19 09:22:29;;;;;;;1.97;1.40;;;25.30;98.00;;;;;;5099113;28;20460;-69
2021/07/19 09:25:08;;;;;;;2.80;1.60;;;25.50;98.00;;;;;;5101570;28;20459;-68
2021/07/19 09:27:35;;;;;;;2.33;1.50;;;25.50;98.00;;;;;;5094680;28;20479;-68
2021/07/19 09:30:15;;;;;;;1.70;1.47;;;25.70;98.00;;;;;;5102969;28;20577;-68
2021/07/19 09:32:59;;;;;;;1.57;1.57;;;26.00;98.00;;;;;;5096349;28;20576;-69
2021/07/19 09:35:27;;;;;;;3.60;2.00;;;26.20;98.00;;;;;;5098267;28;20478;-68
2021/07/19 09:38:02;;;;;;;1.80;1.50;;;26.30;98.00;;;;;;5109271;28;20455;-69
2021/07/19 09:40:32;;;;;;;1.80;1.63;;;26.40;98.00;;;;;;5103356;28;20456;-69
2021/07/19 09:43:00;;;;;;;1.60;1.60;;;26.60;98.00;;;;;;5099474;28;20458;-68
2021/07/19 09:45:29;;;;;;;2.20;1.63;;;26.70;97.10;;;;;;5094785;28;20464;-69
2021/07/19 09:48:02;;;;;;;2.10;1.97;;;26.60;96.90;;;;;;5092740;28;20487;-69
2021/07/19 09:50:39;;;;;;;1.77;1.73;;;26.00;98.00;;;;;;5097693;28;20529;-68
2021/07/19 09:53:07;;;;;;;1.47;1.43;;;25.80;98.00;;;;;;5109159;28;20504;-68
2021/07/19 09:55:39;;;;;;;1.70;1.50;;;26.10;98.00;;;;;;5106194;28;20455;-67
2021/07/19 09:58:07;;;;;;;1.43;1.40;;;26.30;98.00;;;;;;5108521;28;20462;-68
2021/07/19 10:00:35;;;;;;;1.77;1.70;;;26.30;97.70;;;;;;5109983;28;20798;-67
2021/07/19 10:03:17;;;;;;;2.03;1.63;;;26.40;98.00;;;;;;5092874;28;20456;-67
2021/07/19 10:05:45;;;;;;;2.47;1.63;;;26.60;96.00;;;;;;5090024;28;20464;-69
2021/07/19 10:08:21;;;;;;;1.87;1.70;;;26.50;94.80;;;;;;5106207;28;20458;-69
2021/07/19 10:10:51;;;;;;;2.67;2.00;;;26.40;94.00;;;;;;5099403;28;20562;-71
2021/07/19 10:13:19;;;;;;;2.00;1.57;;;26.50;93.00;;;;;;5109181;28;20484;-70
2021/07/19 10:15:48;;;;;;;1.93;1.70;;;26.50;93.00;;;;;;5100035;28;20466;-69
2021/07/19 10:18:18;;;;;;;2.13;1.60;;;26.60;92.90;;;;;;5107691;28;20468;-71
2021/07/19 10:20:44;;;;;;;1.53;1.47;;;26.90;93.10;;;;;;5093750;28;20525;-69
2021/07/19 10:23:13;;;;;;;2.00;1.90;;;27.10;91.60;;;;;;5107136;28;20479;-70
2021/07/19 10:25:40;;;;;;;3.73;1.80;;;27.30;93.50;;;;;;5092418;28;20471;-70
2021/07/19 10:28:09;;;;;;;1.67;1.50;;;27.40;91.70;;;;;;5097677;28;20455;-70
2021/07/19 10:30:43;;;;;;;2.20;1.73;;;27.70;94.60;;;;;;5100779;28;20525;-70
2021/07/19 10:33:11;;;;;;;2.90;1.80;;;27.90;91.90;;;;;;5102548;28;20477;-70
2021/07/19 10:35:44;;;;;;;1.83;1.73;;;28.00;91.60;;;;;;5098594;28;20512;-70
2021/07/19 10:38:17;;;;;;;1.60;1.60;;;28.20;91.10;;;;;;5100765;28;20491;-70
2021/07/19 10:40:54;;;;;;;3.23;2.07;;;28.10;90.10;;;;;;5104140;28;20490;-69
2021/07/19 10:43:24;;;;;;;2.80;1.60;;;28.40;90.50;;;;;;5100282;28;20583;-70
2021/07/19 10:45:57;;;;;;;1.70;1.50;;;28.60;89.40;;;;;;5108082;28;20447;-70
2021/07/19 10:48:26;;;;;;;2.30;1.73;;;28.40;88.10;;;;;;5101647;28;20448;-70
2021/07/19 10:50:58;;;;;;;1.50;1.37;;;28.30;88.60;;;;;;5075169;28;20492;-70
2021/07/19 10:53:29;;;;;;;1.90;1.67;;;28.40;87.50;;;;;;5089158;28;20460;-70
2021/07/19 10:56:01;;;;;;;2.90;1.80;;;28.60;89.10;;;;;;5106500;28;20839;-71
2021/07/19 10:58:42;;;;;;;1.50;1.47;;;28.70;86.90;;;;;;5107606;28;20459;-70
2021/07/19 11:01:23;;;;;;;2.90;1.80;;;29.00;88.50;;;;;;5100446;28;20515;-70
2021/07/19 11:03:53;;;;;;;2.37;1.57;;;28.70;84.80;;;;;;5083164;28;20942;-71
2021/07/19 11:06:33;;;;;;;2.00;1.70;;;28.60;87.30;;;;;;5100135;28;20526;-67
2021/07/19 11:09:02;;;;;;;2.40;1.83;;;28.30;89.50;;;;;;5098334;28;20487;-67
2021/07/19 11:11:31;;;;;;;1.60;1.50;;;28.00;89.70;;;;;;5101176;28;20572;-67
2021/07/19 11:14:02;;;;;;;2.50;1.80;;;27.70;90.50;;;;;;5105470;28;20953;-68
2021/07/19 11:16:39;;;;;;;2.00;1.80;;;27.40;91.00;;;;;;5098420;28;20546;-67
2021/07/19 11:19:06;;;;;;;1.80;1.53;;;27.50;93.10;;;;;;5094998;28;20567;-67
2021/07/19 11:21:35;;;;;;;1.87;1.83;;;27.90;93.40;;;;;;5094459;28;20479;-67
2021/07/19 11:24:13;;;;;;;3.13;1.93;;;28.30;89.20;;;;;;5102557;28;20456;-67
2021/07/19 11:26:53;;;;;;;2.13;1.77;;;28.70;86.90;;;;;;5096035;28;20471;-67
2021/07/19 11:29:35;;;;;;;1.67;1.50;;;29.00;88.90;;;;;;5110005;28;20493;-68
2021/07/19 11:32:07;;;;;;;1.70;1.50;;;29.20;85.60;;;;;;5112430;28;20564;-67
2021/07/19 11:34:35;;;;;;;1.70;1.60;;;29.10;84.90;;;;;;5112232;28;20450;-68
2021/07/19 11:37:03;;;;;;;2.43;1.97;;;29.30;83.90;;;;;;5112284;28;20530;-68
2021/07/19 11:39:41;;;;;;;1.73;1.60;;;29.40;83.00;;;;;;5111718;28;20945;-68
2021/07/19 11:42:10;;;;;;;2.17;1.60;;;29.30;82.50;;;;;;5111386;28;20779;-70
2021/07/19 11:44:40;;;;;;;2.13;1.43;;;29.70;83.90;;;;;;5112248;28;20843;-68
2021/07/19 11:47:10;;;;;;;2.23;1.60;;;30.20;83.90;;;;;;5112187;28;20451;-68
2021/07/19 11:49:37;;;;;;;1.83;1.50;;;30.60;83.40;;;;;;5112241;28;20508;-68
2021/07/19 11:52:09;;;;;;;2.43;1.70;;;30.80;82.80;;;;;;5111190;28;20839;-69
2021/07/19 11:54:39;;;;;;;3.50;2.17;;;30.80;82.90;;;;;;5110529;28;20451;-68
2021/07/19 11:57:08;;;;;;;2.07;1.87;;;30.50;83.10;;;;;;5112332;28;20258;-68
2021/07/19 11:59:44;;;;;;;1.80;1.70;;;30.20;83.20;;;;;;5112281;28;20455;-67
2021/07/19 12:02:11;;;;;;;1.60;1.50;;;29.90;84.10;;;;;;5112297;28;20923;-67
2021/07/19 12:04:38;;;;;;;2.60;1.90;;;29.80;82.60;;;;;;5112079;28;20515;-70
2021/07/19 12:07:06;;;;;;;2.27;1.70;;;29.90;83.90;;;;;;5112021;28;21041;-67
2021/07/19 12:09:34;;;;;;;1.80;1.63;;;30.10;82.00;;;;;;5111977;28;20478;-67
2021/07/19 12:12:02;;;;;;;1.80;1.70;;;30.20;81.10;;;;;;5111887;28;20462;-67
2021/07/19 12:14:30;;;;;;;2.03;1.70;;;30.20;81.40;;;;;;5100172;28;20489;-67
2021/07/19 12:16:59;;;;;;;2.23;1.73;;;29.90;81.80;;;;;;5091273;28;20965;-67
2021/07/19 12:19:27;;;;;;;2.07;1.63;;;30.10;84.00;;;;;;5091733;28;20908;-68
2021/07/19 12:21:57;;;;;;;1.97;1.70;;;30.30;80.40;;;;;;5091620;28;20826;-67
2021/07/19 12:24:29;;;;;;;2.40;1.60;;;30.40;81.00;;;;;;5091537;28;20452;-67
2021/07/19 12:26:57;;;;;;;2.13;1.80;;;30.50;80.90;;;;;;5090220;28;20517;-67
2021/07/19 12:29:29;;;;;;;1.63;1.60;;;30.70;82.50;;;;;;5091350;28;20619;-68
2021/07/19 12:32:02;;;;;;;3.27;2.80;;;30.60;80.30;;;;;;5090371;28;20478;-67
2021/07/19 12:34:30;;;;;;;2.07;1.70;;;30.10;81.00;;;;;;5090151;28;20517;-68
2021/07/19 12:37:00;;;;;;;2.70;2.13;;;29.90;81.30;;;;;;5091326;28;20916;-67
2021/07/19 12:39:28;;;;;;;1.60;1.60;;;29.50;81.70;;;;;;5091409;28;20456;-68
2021/07/19 12:41:56;;;;;;;1.80;1.60;;;29.40;82.00;;;;;;5091506;28;20455;-67
2021/07/19 12:44:26;;;;;;;2.23;1.70;;;29.60;82.60;;;;;;5091155;28;20456;-68
2021/07/19 12:46:54;;;;;;;2.97;2.00;;;29.90;83.00;;;;;;5091417;28;20459;-68
2021/07/19 12:49:30;;;;;;;2.00;1.57;;;29.70;80.30;;;;;;5090098;28;20452;-67
2021/07/19 12:52:01;;;;;;;2.57;2.20;;;29.30;83.00;;;;;;5091086;28;20525;-67
2021/07/19 12:54:30;;;;;;;1.50;1.43;;;29.00;83.20;;;;;;5091236;28;20491;-67
2021/07/19 12:56:58;;;;;;;2.73;1.70;;;28.70;82.90;;;;;;5091166;28;20463;-67
2021/07/19 12:59:25;;;;;;;2.80;1.87;;;28.80;83.00;;;;;;5091337;28;20491;-66